OBBI/BAH METAR and TAF weather

Enter ICAO airport designator
Station Type Date Time Source
OBBI METAR 2021/10/20 07:00 UTC NOAA

OBBI 200700Z 32015KT CAVOK 32/23 Q1014 NOSIG


Station Type Date Time Source
OBBI Decoded METAR 2021/10/20 07:00 UTC NOAA

Bahrain International Airport , Bahrain (OBBI) 26-16N 050-39E 2M
Oct 20, 2021 - 03:00 AM EDT / 2021.10.20 0700 UTC
Wind: from the NW (320 degrees) at 17 MPH (15 KT):0
Visibility: greater than 7 mile(s):0
Temperature: 89 F (32 C)
Heat index: 96.8 F (36.0 C):1
Dew Point: 73 F (23 C)
Relative Humidity: 59%
Pressure (altimeter): 29.94 in. Hg (1014 hPa)
ob: OBBI 200700Z 32015KT CAVOK 32/23 Q1014 NOSIG
cycle: 7

Station Type Date Time Source
OBBI TAF 2021/10/20 06:51 UTC NOAA

TAF TAF OBBI 200500Z 2006/2112 33013KT CAVOK
BECMG 2106/2108 34018G28KT

Example: see airport list